createdAt,value
2019-05-16T00:00:10.554Z,9.28
2019-05-16T00:02:38.760Z,9.63
2019-05-16T00:05:08.376Z,9.10
2019-05-16T00:07:38.927Z,8.35
2019-05-16T00:10:08.380Z,9.10
2019-05-16T00:12:39.668Z,8.93
2019-05-16T00:15:09.143Z,7.62
2019-05-16T00:17:38.533Z,8.35
2019-05-16T00:20:09.378Z,8.90
2019-05-16T00:22:39.436Z,8.58
2019-05-16T00:25:08.667Z,8.70
2019-05-16T00:27:38.649Z,8.50
2019-05-16T00:30:08.914Z,8.48
2019-05-16T00:32:39.040Z,8.00
2019-05-16T00:35:09.229Z,8.68
2019-05-16T00:37:38.971Z,8.50
2019-05-16T00:40:08.201Z,9.05
2019-05-16T00:42:38.772Z,8.20
2019-05-16T00:45:08.881Z,8.80
2019-05-16T00:47:38.681Z,8.28
2019-05-16T00:50:08.550Z,8.15
2019-05-16T00:52:36.357Z,9.00
2019-05-16T00:55:04.675Z,8.03
2019-05-16T00:57:32.936Z,8.90
2019-05-16T01:00:01.415Z,8.88
2019-05-16T01:02:29.963Z,7.92
2019-05-16T01:04:58.942Z,9.08
2019-05-16T01:07:27.755Z,8.53
2019-05-16T01:09:58.163Z,8.45
2019-05-16T01:12:28.209Z,9.40
2019-05-16T01:14:58.270Z,8.53
2019-05-16T01:17:28.171Z,8.38
2019-05-16T01:19:57.729Z,9.15
2019-05-16T01:22:25.668Z,8.53
2019-05-16T01:24:53.868Z,8.40
2019-05-16T01:27:22.064Z,9.40
2019-05-16T01:29:50.263Z,8.98
2019-05-16T01:32:19.011Z,9.28
2019-05-16T01:34:48.296Z,8.93
2019-05-16T01:37:18.477Z,8.88
2019-05-16T01:39:48.383Z,9.00
2019-05-16T01:42:18.377Z,8.78
2019-05-16T01:44:48.570Z,9.10
2019-05-16T01:47:18.295Z,9.50
2019-05-16T01:49:48.569Z,9.30
2019-05-16T01:52:17.833Z,9.73
2019-05-16T01:54:47.998Z,9.20
2019-05-16T01:57:17.913Z,9.35
2019-05-16T01:59:48.393Z,9.18
2019-05-16T02:02:18.008Z,9.68
2019-05-16T02:04:45.830Z,9.28
2019-05-16T02:07:14.022Z,9.40
2019-05-16T02:09:42.229Z,9.43
2019-05-16T02:12:10.754Z,10.45
2019-05-16T02:14:39.105Z,9.33
2019-05-16T02:17:10.870Z,9.38
2019-05-16T02:19:38.485Z,9.75
2019-05-16T02:22:08.719Z,9.93
2019-05-16T02:24:38.856Z,9.33
2019-05-16T02:27:09.384Z,9.70
2019-05-16T02:29:36.686Z,9.65
2019-05-16T02:32:04.881Z,9.60
2019-05-16T02:34:33.092Z,10.25
2019-05-16T02:37:19.045Z,9.60
2019-05-16T02:39:31.209Z,9.38
2019-05-16T02:42:01.064Z,9.78
2019-05-16T02:44:31.949Z,9.48
2019-05-16T02:47:01.505Z,10.15
2019-05-16T02:49:33.720Z,9.90
2019-05-16T02:52:01.339Z,9.38
2019-05-16T02:54:31.647Z,9.85
2019-05-16T02:57:01.485Z,11.28
2019-05-16T02:59:30.728Z,10.03
2019-05-16T03:02:00.838Z,8.80
2019-05-16T03:04:30.666Z,10.50
2019-05-16T03:07:00.614Z,10.13
2019-05-16T03:09:30.509Z,9.75
2019-05-16T03:12:01.367Z,9.45
2019-05-16T03:14:31.552Z,10.60
2019-05-16T03:17:01.018Z,9.53
2019-05-16T03:19:31.115Z,9.73
2019-05-16T03:22:01.121Z,9.30
2019-05-16T03:24:31.002Z,9.25
2019-05-16T03:27:01.620Z,9.33
2019-05-16T03:29:30.910Z,9.90
2019-05-16T03:32:03.102Z,10.30
2019-05-16T03:34:33.824Z,9.93
2019-05-16T03:37:03.987Z,9.90
2019-05-16T03:39:31.395Z,10.98
2019-05-16T03:42:01.072Z,10.08
2019-05-16T03:44:31.797Z,10.35
2019-05-16T03:47:00.995Z,9.88
2019-05-16T03:49:31.271Z,10.00
2019-05-16T03:52:01.531Z,10.48
2019-05-16T03:54:31.180Z,10.08
2019-05-16T03:57:00.522Z,10.18
2019-05-16T03:59:31.216Z,10.45
2019-05-16T04:02:01.245Z,10.43
2019-05-16T04:04:30.817Z,10.00
2019-05-16T04:07:01.128Z,10.78
2019-05-16T04:09:31.307Z,10.32
2019-05-16T04:12:01.534Z,10.32
2019-05-16T04:14:30.821Z,9.93
2019-05-16T04:17:01.297Z,9.88
2019-05-16T04:19:31.420Z,10.75
2019-05-16T04:22:01.374Z,10.40
2019-05-16T04:24:31.660Z,11.10
2019-05-16T04:27:01.014Z,10.98
2019-05-16T04:29:31.558Z,11.50
2019-05-16T04:32:01.475Z,11.38
2019-05-16T04:34:31.153Z,12.40
2019-05-16T04:37:01.094Z,10.35
2019-05-16T04:39:31.831Z,11.85
2019-05-16T04:42:01.632Z,11.48
2019-05-16T04:44:30.978Z,11.33
2019-05-16T04:47:01.575Z,11.78
2019-05-16T04:49:31.671Z,12.60
2019-05-16T04:52:00.642Z,12.43
2019-05-16T04:54:30.860Z,13.50
2019-05-16T04:57:01.466Z,12.15
2019-05-16T04:59:31.262Z,13.22
2019-05-16T05:02:01.663Z,12.95
2019-05-16T05:04:30.678Z,11.45
2019-05-16T05:07:00.510Z,11.78
2019-05-16T05:09:31.356Z,12.05
2019-05-16T05:12:03.943Z,12.15
2019-05-16T05:14:30.662Z,11.20
2019-05-16T05:17:00.934Z,11.38
2019-05-16T05:19:30.532Z,11.18
2019-05-16T05:22:01.156Z,11.25
2019-05-16T05:24:30.162Z,11.85
2019-05-16T05:26:59.818Z,12.03
2019-05-16T05:29:27.879Z,12.70
2019-05-16T05:31:56.185Z,11.70
2019-05-16T05:34:24.409Z,11.65
2019-05-16T05:36:52.615Z,10.98
2019-05-16T05:39:20.816Z,10.28
2019-05-16T05:41:50.420Z,11.20
2019-05-16T05:44:20.310Z,10.90
2019-05-16T05:46:51.242Z,11.03
2019-05-16T05:49:20.462Z,11.80
2019-05-16T05:51:50.026Z,10.95
2019-05-16T05:54:20.387Z,10.63
2019-05-16T05:56:50.148Z,10.90
2019-05-16T05:59:20.102Z,10.58
2019-05-16T06:01:51.352Z,10.55
2019-05-16T06:04:19.776Z,11.03
2019-05-16T06:06:50.439Z,10.23
2019-05-16T06:09:26.302Z,10.95
2019-05-16T06:11:50.036Z,10.98
2019-05-16T06:14:17.880Z,11.57
2019-05-16T06:16:46.126Z,10.80
2019-05-16T06:19:14.320Z,10.90
2019-05-16T06:21:44.861Z,10.82
2019-05-16T06:24:12.487Z,10.60
2019-05-16T06:26:40.681Z,11.83
2019-05-16T06:29:10.460Z,12.13
2019-05-16T06:31:40.682Z,11.88
2019-05-16T06:34:14.993Z,10.80
2019-05-16T06:36:40.144Z,10.63
2019-05-16T06:39:11.233Z,10.95
2019-05-16T06:41:39.757Z,10.80
2019-05-16T06:44:10.528Z,10.63
2019-05-16T06:46:54.338Z,11.97
2019-05-16T06:49:10.189Z,11.53
2019-05-16T06:51:39.754Z,11.95
2019-05-16T06:54:09.903Z,11.12
2019-05-16T06:56:40.008Z,11.80
2019-05-16T06:59:10.175Z,11.35
2019-05-16T07:01:37.704Z,11.00
2019-05-16T07:04:05.913Z,11.40
2019-05-16T07:06:51.824Z,11.93
2019-05-16T07:09:05.265Z,11.65
2019-05-16T07:11:33.462Z,11.83
2019-05-16T07:14:01.672Z,12.45
2019-05-16T07:16:30.085Z,13.28
2019-05-16T07:19:00.724Z,12.98
2019-05-16T07:21:31.088Z,12.33
2019-05-16T07:24:00.128Z,11.55
2019-05-16T07:26:30.547Z,10.35
2019-05-16T07:29:00.292Z,12.25
2019-05-16T07:31:30.026Z,11.45
2019-05-16T07:34:00.599Z,12.33
2019-05-16T07:36:27.984Z,11.03
2019-05-16T07:38:56.196Z,11.38
2019-05-16T07:41:24.392Z,11.00
2019-05-16T07:43:52.600Z,10.25
2019-05-16T07:46:20.941Z,10.98
2019-05-16T07:48:51.867Z,10.00
2019-05-16T07:51:20.539Z,10.03
2019-05-16T07:53:50.463Z,9.38
2019-05-16T07:56:20.366Z,9.40
2019-05-16T07:58:50.802Z,8.20
2019-05-16T08:01:20.029Z,9.68
2019-05-16T08:03:50.678Z,8.65
2019-05-16T08:06:20.149Z,8.80
2019-05-16T08:08:50.768Z,8.28
2019-05-16T08:11:20.534Z,8.53
2019-05-16T08:13:50.594Z,7.80
2019-05-16T08:16:20.580Z,9.80
2019-05-16T08:18:50.622Z,8.63
2019-05-16T08:21:20.245Z,9.10
2019-05-16T08:26:21.524Z,7.85
2019-05-16T08:28:50.400Z,7.95
2019-05-16T08:31:20.726Z,7.70
2019-05-16T08:33:47.770Z,8.18
2019-05-16T08:36:15.969Z,7.80
2019-05-16T08:38:44.176Z,6.95
2019-05-16T08:41:16.954Z,6.55
2019-05-16T08:43:42.346Z,7.08
2019-05-16T08:46:12.337Z,7.35
2019-05-16T08:48:42.355Z,7.42
2019-05-16T08:50:06.462Z,7.37
2019-05-16T08:51:12.216Z,6.30
2019-05-16T08:53:43.234Z,7.45
2019-05-16T08:58:41.179Z,6.53
2019-05-16T09:01:14.667Z,6.53
2019-05-16T09:03:41.600Z,7.22
2019-05-16T09:08:39.674Z,6.70
2019-05-16T09:10:14.344Z,6.58
2019-05-16T09:10:26.103Z,6.62
2019-05-16T09:11:26.946Z,6.58
2019-05-16T09:13:37.855Z,7.08
2019-05-16T09:16:07.767Z,6.12
2019-05-16T09:18:41.172Z,5.62
2019-05-16T09:21:07.299Z,5.90
2019-05-16T09:23:38.299Z,6.17
2019-05-16T09:26:07.316Z,5.97
2019-05-16T09:28:38.976Z,7.30
2019-05-16T09:31:07.116Z,6.72
2019-05-16T09:33:37.547Z,6.37
2019-05-16T09:36:07.841Z,6.10
2019-05-16T09:38:38.314Z,6.05
2019-05-16T09:41:07.924Z,7.10
2019-05-16T09:43:38.610Z,7.45
2019-05-16T09:46:07.635Z,6.67
2019-05-16T09:48:37.744Z,6.92
2019-05-16T09:51:06.678Z,6.75
2019-05-16T09:53:36.625Z,5.83
2019-05-16T09:56:07.013Z,6.75
2019-05-16T09:58:37.063Z,6.42
2019-05-16T10:01:04.894Z,6.05
2019-05-16T10:03:33.108Z,6.10
2019-05-16T10:06:01.316Z,6.35
2019-05-16T10:08:29.520Z,6.10
2019-05-16T10:10:57.796Z,4.92
2019-05-16T10:13:27.583Z,4.95
2019-05-16T10:15:55.965Z,5.40
2019-05-16T10:18:24.148Z,5.72
2019-05-16T10:20:52.359Z,5.72
2019-05-16T10:23:20.561Z,6.22
2019-05-16T10:25:48.772Z,6.12
2019-05-16T10:28:19.797Z,5.72
2019-05-16T10:30:50.053Z,6.28
2019-05-16T10:33:18.846Z,6.70
2019-05-16T10:35:47.973Z,5.67
2019-05-16T10:38:16.533Z,6.53
2019-05-16T10:40:47.159Z,6.20
2019-05-16T10:43:17.089Z,5.62
2019-05-16T10:45:46.388Z,6.05
2019-05-16T10:48:17.290Z,5.97
2019-05-16T10:50:44.798Z,5.50
2019-05-16T10:53:42.322Z,5.35
2019-05-16T10:55:43.672Z,5.17
2019-05-16T10:58:11.889Z,5.97
2019-05-16T11:01:07.742Z,4.20
2019-05-16T11:03:10.032Z,3.90
2019-05-16T11:05:39.664Z,5.05
2019-05-16T11:08:08.536Z,4.65
2019-05-16T11:10:37.397Z,5.65
2019-05-16T11:13:07.986Z,5.53
2019-05-16T11:15:37.441Z,6.22
2019-05-16T11:18:06.844Z,6.20
2019-05-16T11:20:37.405Z,5.92
2019-05-16T11:23:07.717Z,6.28
2019-05-16T11:25:36.733Z,5.83
2019-05-16T11:28:07.287Z,5.97
2019-05-16T11:30:37.607Z,5.05
2019-05-16T11:33:07.348Z,6.15
2019-05-16T11:35:37.837Z,5.58
2019-05-16T11:38:07.164Z,5.92
2019-05-16T11:40:34.810Z,5.60
2019-05-16T11:43:09.285Z,5.67
2019-05-16T11:45:32.952Z,6.55
2019-05-16T11:48:01.206Z,5.80
2019-05-16T11:50:29.425Z,5.58
2019-05-16T11:52:57.633Z,6.17
2019-05-16T11:55:32.220Z,5.72
2019-05-16T11:57:56.882Z,5.58
2019-05-16T12:00:30.141Z,7.10
2019-05-16T12:02:55.153Z,6.90
2019-05-16T12:05:23.360Z,5.70
2019-05-16T12:07:51.594Z,7.17
2019-05-16T12:10:19.798Z,6.80
2019-05-16T12:12:48.021Z,6.70
2019-05-16T12:15:19.446Z,6.45
2019-05-16T12:18:00.272Z,7.35
2019-05-16T12:20:16.688Z,7.22
2019-05-16T12:22:45.008Z,5.90
2019-05-16T12:25:13.254Z,5.58
2019-05-16T12:27:42.460Z,5.92
2019-05-16T12:30:13.641Z,6.12
2019-05-16T12:32:40.832Z,6.42
2019-05-16T12:35:09.043Z,6.95
2019-05-16T12:37:37.567Z,5.62
2019-05-16T12:40:08.643Z,5.87
2019-05-16T12:42:36.836Z,5.95
2019-05-16T12:45:08.046Z,5.87
2019-05-16T12:47:37.489Z,7.15
2019-05-16T12:50:11.051Z,5.97
2019-05-16T12:52:39.747Z,5.30
2019-05-16T12:55:07.996Z,7.05
2019-05-16T12:57:38.376Z,6.12
2019-05-16T13:00:07.430Z,5.85
2019-05-16T13:02:37.815Z,6.92
2019-05-16T13:05:06.482Z,6.67
2019-05-16T13:07:34.682Z,6.65
2019-05-16T13:10:02.905Z,6.67
2019-05-16T13:12:31.237Z,6.97
2019-05-16T13:14:59.483Z,7.45
2019-05-16T13:17:27.680Z,6.70
2019-05-16T13:19:57.600Z,6.47
2019-05-16T13:22:27.571Z,6.83
2019-05-16T13:24:57.486Z,7.83
2019-05-16T13:27:25.985Z,6.55
2019-05-16T13:29:54.186Z,6.55
2019-05-16T13:32:22.384Z,6.62
2019-05-16T13:34:50.597Z,5.35
2019-05-16T13:37:18.796Z,6.60
2019-05-16T13:39:47.583Z,7.45
2019-05-16T13:42:16.585Z,6.78
2019-05-16T13:44:47.182Z,6.42
2019-05-16T13:47:17.297Z,5.78
2019-05-16T13:49:44.877Z,6.50
2019-05-16T13:52:13.076Z,6.45
2019-05-16T13:54:41.288Z,7.60
2019-05-16T13:57:09.500Z,5.90
2019-05-16T13:59:37.700Z,7.10
2019-05-16T14:02:08.068Z,7.58
2019-05-16T14:04:37.283Z,7.85
2019-05-16T14:07:07.656Z,7.65
2019-05-16T14:09:37.778Z,7.05
2019-05-16T14:12:06.745Z,8.18
2019-05-16T14:14:41.908Z,6.95
2019-05-16T14:17:12.144Z,6.22
2019-05-16T14:19:37.367Z,8.18
2019-05-16T14:22:07.465Z,7.33
2019-05-16T14:24:37.187Z,8.65
2019-05-16T14:27:06.699Z,8.90
2019-05-16T14:29:37.512Z,8.95
2019-05-16T14:32:09.505Z,9.35
2019-05-16T14:34:34.678Z,8.95
2019-05-16T14:37:02.898Z,9.85
2019-05-16T14:39:31.131Z,9.18
2019-05-16T14:41:59.393Z,9.00
2019-05-16T14:44:28.659Z,8.55
2019-05-16T14:46:57.097Z,8.55
2019-05-16T14:49:28.486Z,8.23
2019-05-16T14:51:57.872Z,8.75
2019-05-16T14:54:26.857Z,8.95
2019-05-16T14:57:00.220Z,9.75
2019-05-16T14:59:28.835Z,9.43
2019-05-16T15:01:57.997Z,11.40
2019-05-16T15:04:29.866Z,9.95
2019-05-16T15:06:57.201Z,9.60
2019-05-16T15:09:27.149Z,11.70
2019-05-16T15:11:57.881Z,11.08
2019-05-16T15:14:24.738Z,10.48
2019-05-16T15:16:52.941Z,10.45
2019-05-16T15:19:21.178Z,9.80
2019-05-16T15:21:49.391Z,9.93
2019-05-16T15:24:17.951Z,9.55
2019-05-16T15:26:47.266Z,10.30
2019-05-16T15:29:16.514Z,9.80
2019-05-16T15:31:46.780Z,9.30
2019-05-16T15:34:14.808Z,8.78
2019-05-16T15:36:43.024Z,10.98
2019-05-16T15:39:11.235Z,9.58
2019-05-16T15:41:39.444Z,9.10
2019-05-16T15:44:07.999Z,9.80
2019-05-16T15:46:37.028Z,9.13
2019-05-16T15:49:09.624Z,9.68
2019-05-16T15:51:36.921Z,9.03
2019-05-16T15:54:06.733Z,8.98
2019-05-16T15:56:37.268Z,10.43
2019-05-16T15:59:06.945Z,9.73
2019-05-16T16:01:37.629Z,10.35
2019-05-16T16:04:06.999Z,10.30
2019-05-16T16:06:37.740Z,9.63
2019-05-16T16:09:06.971Z,10.43
2019-05-16T16:11:37.463Z,9.98
2019-05-16T16:14:06.953Z,10.72
2019-05-16T16:16:35.662Z,11.05
2019-05-16T16:19:06.444Z,9.95
2019-05-16T16:21:33.956Z,9.65
2019-05-16T16:24:05.042Z,10.10
2019-05-16T16:26:32.126Z,10.08
2019-05-16T16:29:00.333Z,10.08
2019-05-16T16:31:28.531Z,9.50
2019-05-16T16:33:57.293Z,9.73
2019-05-16T16:36:27.578Z,10.05
2019-05-16T16:38:56.763Z,9.98
2019-05-16T16:41:27.211Z,9.60
2019-05-16T16:43:57.089Z,10.15
2019-05-16T16:46:26.929Z,9.40
2019-05-16T16:48:56.757Z,9.10
2019-05-16T16:51:26.890Z,9.90
2019-05-16T16:53:56.875Z,8.95
2019-05-16T16:56:27.265Z,8.68
2019-05-16T16:58:54.508Z,8.45
2019-05-16T17:01:22.715Z,9.45
2019-05-16T17:03:54.160Z,9.38
2019-05-16T17:06:20.845Z,10.28
2019-05-16T17:08:49.093Z,9.78
2019-05-16T17:11:17.298Z,10.50
2019-05-16T17:13:47.302Z,11.12
2019-05-16T17:16:24.792Z,10.32
2019-05-16T17:18:47.532Z,10.82
2019-05-16T17:21:17.105Z,8.90
2019-05-16T17:23:46.562Z,10.35
2019-05-16T17:26:14.889Z,10.38
2019-05-16T17:28:43.112Z,9.60
2019-05-16T17:31:11.363Z,10.80
2019-05-16T17:33:39.577Z,10.13
2019-05-16T17:36:09.123Z,11.03
2019-05-16T17:38:37.834Z,10.63
2019-05-16T17:41:07.679Z,9.78
2019-05-16T17:43:36.372Z,9.38
2019-05-16T17:46:06.826Z,10.18
2019-05-16T17:48:37.197Z,11.10
2019-05-16T17:51:04.530Z,9.58
2019-05-16T17:53:32.765Z,9.20
2019-05-16T17:56:00.994Z,9.48
2019-05-16T17:58:29.196Z,10.05
2019-05-16T18:01:00.172Z,9.80
2019-05-16T18:03:27.366Z,9.23
2019-05-16T18:05:56.744Z,10.40
2019-05-16T18:08:25.093Z,10.18
2019-05-16T18:10:53.302Z,10.40
2019-05-16T18:13:21.496Z,11.15
2019-05-16T18:15:49.767Z,10.38
2019-05-16T18:18:17.972Z,9.35
2019-05-16T18:20:55.712Z,12.73
2019-05-16T18:23:16.490Z,30.65
2019-05-16T18:25:46.831Z,16.75
2019-05-16T18:28:14.805Z,11.80
2019-05-16T18:30:43.049Z,11.90
2019-05-16T18:33:11.412Z,10.75
2019-05-16T18:35:39.630Z,10.93
2019-05-16T18:38:07.875Z,10.88
2019-05-16T18:40:36.861Z,9.78
2019-05-16T18:43:07.867Z,9.50
2019-05-16T18:45:36.639Z,10.05
2019-05-16T18:48:07.472Z,10.08
2019-05-16T18:50:37.682Z,9.53
2019-05-16T18:53:07.016Z,11.43
2019-05-16T18:55:36.922Z,9.78
2019-05-16T18:58:08.268Z,9.35
2019-05-16T19:00:37.295Z,11.05
2019-05-16T19:03:07.807Z,11.55
2019-05-16T19:05:37.341Z,11.88
2019-05-16T19:08:07.319Z,11.43
2019-05-16T19:10:36.700Z,11.43
2019-05-16T19:13:07.706Z,11.97
2019-05-16T19:15:37.337Z,12.70
2019-05-16T19:18:06.536Z,11.53
2019-05-16T19:20:37.178Z,11.20
2019-05-16T19:23:07.406Z,11.20
2019-05-16T19:25:34.936Z,11.53
2019-05-16T19:28:03.183Z,11.90
2019-05-16T19:30:31.393Z,12.45
2019-05-16T19:32:59.613Z,11.83
2019-05-16T19:35:27.862Z,11.80
2019-05-16T19:37:56.959Z,13.30
2019-05-16T19:40:25.260Z,11.38
2019-05-16T19:42:53.498Z,12.07
2019-05-16T19:45:21.734Z,12.82
2019-05-16T19:47:49.982Z,12.18
2019-05-16T19:50:18.176Z,13.08
2019-05-16T19:52:47.151Z,12.05
2019-05-16T19:55:15.576Z,11.97
2019-05-16T19:57:43.793Z,12.90
2019-05-16T20:00:12.045Z,12.25
2019-05-16T20:02:40.253Z,13.48
2019-05-16T20:05:08.475Z,13.93
2019-05-16T20:07:37.177Z,12.50
2019-05-16T20:10:08.764Z,13.08
2019-05-16T20:12:37.010Z,11.85
2019-05-16T20:15:11.272Z,13.03
2019-05-16T20:17:36.590Z,13.60
2019-05-16T20:20:06.372Z,12.80
2019-05-16T20:22:36.788Z,13.28
2019-05-16T20:25:05.352Z,13.72
2019-05-16T20:27:33.557Z,13.72
2019-05-16T20:30:01.757Z,12.58
2019-05-16T20:32:29.964Z,13.68
2019-05-16T20:34:58.204Z,13.08
2019-05-16T20:37:26.604Z,15.50
2019-05-16T20:39:54.826Z,15.40
2019-05-16T20:42:23.038Z,13.53
2019-05-16T20:44:51.236Z,13.18
2019-05-16T20:47:19.444Z,13.25
2019-05-16T20:49:50.555Z,13.40
2019-05-16T20:52:17.585Z,13.68
2019-05-16T20:54:46.586Z,12.98
2019-05-16T20:57:17.277Z,12.07
2019-05-16T20:59:46.319Z,13.43
2019-05-16T21:02:16.362Z,14.23
2019-05-16T21:04:46.488Z,13.90
2019-05-16T21:07:17.095Z,13.20
2019-05-16T21:09:44.493Z,14.33
2019-05-16T21:12:12.697Z,14.30
2019-05-16T21:14:40.896Z,13.72
2019-05-16T21:17:09.104Z,13.75
2019-05-16T21:19:39.341Z,13.03
2019-05-16T21:22:07.385Z,13.68
2019-05-16T21:24:37.346Z,12.53
2019-05-16T21:27:05.722Z,13.30
2019-05-16T21:29:33.921Z,12.93
2019-05-16T21:32:02.153Z,13.58
2019-05-16T21:34:30.356Z,12.93
2019-05-16T21:37:11.285Z,12.68
2019-05-16T21:39:28.484Z,12.40
2019-05-16T21:41:59.458Z,12.23
2019-05-16T21:44:28.963Z,12.90
2019-05-16T21:46:56.555Z,12.05
2019-05-16T21:49:27.092Z,12.43
2019-05-16T21:51:56.776Z,13.08
2019-05-16T21:54:28.644Z,12.82
2019-05-16T21:56:54.586Z,13.05
2019-05-16T21:59:22.788Z,12.07
2019-05-16T22:01:50.992Z,13.90
2019-05-16T22:04:19.230Z,14.55
2019-05-16T22:06:47.614Z,13.78
2019-05-16T22:09:15.870Z,14.00
2019-05-16T22:11:46.417Z,13.93
2019-05-16T22:14:13.994Z,14.25
2019-05-16T22:16:42.234Z,14.05
2019-05-16T22:19:10.442Z,13.65
2019-05-16T22:21:38.678Z,13.43
2019-05-16T22:24:06.955Z,14.03
2019-05-16T22:26:35.189Z,14.75
2019-05-16T22:29:03.421Z,14.50
2019-05-16T22:31:33.898Z,15.20
2019-05-16T22:34:01.576Z,14.33
2019-05-16T22:36:29.810Z,14.15
2019-05-16T22:38:59.702Z,13.60
2019-05-16T22:41:28.020Z,14.68
2019-05-16T22:43:56.233Z,14.75
2019-05-16T22:46:26.726Z,13.62
2019-05-16T22:48:54.384Z,14.80
2019-05-16T22:51:22.600Z,15.03
2019-05-16T22:53:50.804Z,14.98
2019-05-16T22:56:19.008Z,15.45
2019-05-16T22:58:47.220Z,14.33
2019-05-16T23:01:17.597Z,14.98
2019-05-16T23:03:45.360Z,14.80
2019-05-16T23:06:13.560Z,14.68
2019-05-16T23:08:41.768Z,15.08
2019-05-16T23:11:10.017Z,15.75
2019-05-16T23:13:38.213Z,14.95
2019-05-16T23:16:06.926Z,14.93
2019-05-16T23:18:37.265Z,14.90
2019-05-16T23:21:06.407Z,14.80
2019-05-16T23:23:37.006Z,14.25
2019-05-16T23:26:06.352Z,15.25
2019-05-16T23:28:36.764Z,16.90
2019-05-16T23:31:04.849Z,15.15
2019-05-16T23:33:33.052Z,15.80
2019-05-16T23:36:01.526Z,15.15
2019-05-16T23:38:29.720Z,14.78
2019-05-16T23:40:57.971Z,15.43
2019-05-16T23:43:26.240Z,15.20
2019-05-16T23:45:56.305Z,15.13
2019-05-16T23:48:24.360Z,15.90
2019-05-16T23:50:52.573Z,14.45
2019-05-16T23:53:20.806Z,15.30
2019-05-16T23:55:49.008Z,16.60
2019-05-16T23:58:17.223Z,16.57
